createdAt,value
2022-08-20T00:00:20.130Z,19.29
2022-08-20T00:03:33.117Z,19.24
2022-08-20T00:06:37.322Z,19.25
2022-08-20T00:09:41.478Z,19.23
2022-08-20T00:12:45.501Z,19.27
2022-08-20T00:15:48.514Z,19.23
2022-08-20T00:18:51.620Z,19.25
2022-08-20T00:21:58.060Z,19.18
2022-08-20T00:25:01.164Z,19.35
2022-08-20T00:28:06.988Z,19.39
2022-08-20T00:31:12.253Z,19.36
2022-08-20T00:34:14.879Z,19.38
2022-08-20T00:37:19.160Z,19.50
2022-08-20T00:40:26.328Z,19.53
2022-08-20T00:43:33.310Z,19.59
2022-08-20T00:46:36.188Z,19.65
2022-08-20T00:49:38.807Z,19.66
2022-08-20T00:52:49.891Z,19.72
2022-08-20T00:55:53.003Z,19.76
2022-08-20T00:58:56.014Z,19.70
2022-08-20T01:02:01.066Z,19.72
2022-08-20T01:05:05.253Z,19.68
2022-08-20T01:08:09.678Z,19.66
2022-08-20T01:11:16.429Z,19.75
2022-08-20T01:14:30.561Z,19.78
2022-08-20T01:17:36.391Z,19.82
2022-08-20T01:20:42.475Z,19.78
2022-08-20T01:23:54.232Z,19.71
2022-08-20T01:26:58.330Z,19.85
2022-08-20T01:30:02.906Z,19.75
2022-08-20T01:33:09.783Z,19.72
2022-08-20T01:36:13.274Z,19.88
2022-08-20T01:39:18.593Z,19.91
2022-08-20T01:42:30.500Z,19.89
2022-08-20T01:45:33.713Z,19.91
2022-08-20T01:48:36.512Z,19.82
2022-08-20T01:51:39.726Z,19.88
2022-08-20T01:54:42.571Z,19.92
2022-08-20T01:57:48.329Z,19.91
2022-08-20T02:00:50.949Z,19.90
2022-08-20T02:03:54.946Z,19.85
2022-08-20T02:06:59.912Z,19.86
2022-08-20T02:10:02.758Z,19.72
2022-08-20T02:13:09.574Z,19.78
2022-08-20T02:16:12.211Z,19.78
2022-08-20T02:19:18.971Z,19.78
2022-08-20T02:22:28.006Z,19.83
2022-08-20T02:25:36.693Z,19.83
2022-08-20T02:28:41.342Z,19.83
2022-08-20T02:32:24.961Z,19.85
2022-08-20T02:35:12.666Z,19.84
2022-08-20T02:38:15.854Z,19.91
2022-08-20T02:41:21.369Z,19.82
2022-08-20T02:44:25.354Z,19.74
2022-08-20T02:47:28.728Z,19.82
2022-08-20T02:50:31.539Z,19.83
2022-08-20T02:53:37.394Z,19.90
2022-08-20T02:56:40.557Z,19.93
2022-08-20T02:59:45.500Z,19.90
2022-08-20T03:02:48.234Z,19.75
2022-08-20T03:05:54.394Z,19.87
2022-08-20T03:08:57.255Z,19.74
2022-08-20T03:11:59.896Z,19.88
2022-08-20T03:15:04.090Z,19.93
2022-08-20T03:18:06.742Z,19.96
2022-08-20T03:21:10.634Z,19.80
2022-08-20T03:24:17.437Z,19.84
2022-08-20T03:27:21.345Z,19.84
2022-08-20T03:30:31.617Z,19.84
2022-08-20T03:33:35.027Z,19.88
2022-08-20T03:36:37.669Z,19.93
2022-08-20T03:39:40.645Z,19.92
2022-08-20T03:42:43.336Z,19.85
2022-08-20T03:45:47.752Z,19.69
2022-08-20T03:48:50.341Z,19.67
2022-08-20T03:51:59.803Z,19.65
2022-08-20T03:55:02.554Z,19.77
2022-08-20T03:58:07.222Z,19.85
2022-08-20T04:01:45.374Z,19.81
2022-08-20T04:04:33.988Z,19.90
2022-08-20T04:07:37.772Z,19.93
2022-08-20T04:10:40.535Z,19.87
2022-08-20T04:13:43.424Z,19.86
2022-08-20T04:16:49.141Z,19.89
2022-08-20T04:19:51.839Z,19.84
2022-08-20T04:22:58.503Z,19.81
2022-08-20T04:26:01.684Z,19.82
2022-08-20T04:29:04.535Z,19.85
2022-08-20T04:32:08.780Z,19.70
2022-08-20T04:35:15.935Z,19.78
2022-08-20T04:38:20.920Z,19.84
2022-08-20T04:41:24.598Z,19.80
2022-08-20T04:44:27.467Z,19.81
2022-08-20T04:47:34.721Z,19.86
2022-08-20T04:50:39.290Z,19.87
2022-08-20T04:53:42.654Z,19.91
2022-08-20T04:56:45.499Z,19.94
2022-08-20T04:59:48.056Z,19.91
2022-08-20T05:02:52.013Z,20.07
2022-08-20T05:05:54.973Z,20.04
2022-08-20T05:09:00.227Z,20.10
2022-08-20T05:12:02.929Z,20.12
2022-08-20T05:15:06.393Z,20.19
2022-08-20T05:18:10.416Z,20.11
2022-08-20T05:21:13.335Z,20.21
2022-08-20T05:24:18.210Z,20.27
2022-08-20T05:27:24.749Z,20.27
2022-08-20T05:30:33.501Z,20.33
2022-08-20T05:33:40.224Z,20.30
2022-08-20T05:36:45.335Z,20.31
2022-08-20T05:39:49.573Z,20.31
2022-08-20T05:42:53.695Z,20.30
2022-08-20T05:45:58.736Z,20.35
2022-08-20T05:49:02.667Z,20.43
2022-08-20T05:52:06.126Z,20.41
2022-08-20T05:55:11.234Z,20.43
2022-08-20T05:58:18.601Z,20.54
2022-08-20T06:01:21.339Z,20.67
2022-08-20T06:04:28.501Z,20.61
2022-08-20T06:07:31.307Z,20.59
2022-08-20T06:10:33.937Z,20.67
2022-08-20T06:13:36.586Z,20.79
2022-08-20T06:16:39.465Z,20.91
2022-08-20T06:20:02.409Z,21.02
2022-08-20T06:23:06.496Z,20.99
2022-08-20T06:26:09.410Z,20.95
2022-08-20T06:29:12.006Z,21.15
2022-08-20T06:32:14.737Z,21.15
2022-08-20T06:35:20.430Z,21.33
2022-08-20T06:38:23.178Z,21.37
2022-08-20T06:41:36.042Z,21.45
2022-08-20T06:44:39.079Z,21.21
2022-08-20T06:47:42.817Z,21.32
2022-08-20T06:50:48.482Z,21.45
2022-08-20T06:53:51.208Z,21.25
2022-08-20T06:56:54.558Z,21.47
2022-08-20T06:59:58.337Z,21.48
2022-08-20T07:03:02.190Z,21.44
2022-08-20T07:06:06.877Z,21.42
2022-08-20T07:09:09.487Z,21.60
2022-08-20T07:12:12.108Z,21.61
2022-08-20T07:15:15.501Z,21.61
2022-08-20T07:18:28.357Z,21.79
2022-08-20T07:21:33.439Z,21.57
2022-08-20T07:24:40.454Z,21.67
2022-08-20T07:27:44.634Z,21.64
2022-08-20T07:31:13.219Z,21.73
2022-08-20T07:34:16.591Z,21.84
2022-08-20T07:37:20.778Z,21.90
2022-08-20T07:40:27.432Z,21.93
2022-08-20T07:43:30.695Z,22.18
2022-08-20T07:46:33.447Z,22.13
2022-08-20T07:49:39.295Z,22.16
2022-08-20T07:52:43.314Z,22.18
2022-08-20T07:55:54.942Z,22.31
2022-08-20T07:59:02.255Z,22.36
2022-08-20T08:02:05.264Z,22.46
2022-08-20T08:05:08.835Z,22.64
2022-08-20T08:08:17.540Z,22.81
2022-08-20T08:11:20.349Z,22.66
2022-08-20T08:14:27.308Z,22.65
2022-08-20T08:17:31.170Z,22.47
2022-08-20T08:20:33.945Z,22.63
2022-08-20T08:23:50.550Z,22.77
2022-08-20T08:26:53.155Z,22.88
2022-08-20T08:29:55.814Z,23.09
2022-08-20T08:33:16.185Z,23.13
2022-08-20T08:36:18.805Z,23.30
2022-08-20T08:39:22.744Z,23.35
2022-08-20T08:42:29.768Z,23.49
2022-08-20T08:45:41.231Z,23.57
2022-08-20T08:48:47.539Z,23.44
2022-08-20T08:51:56.059Z,23.35
2022-08-20T08:55:04.499Z,23.17
2022-08-20T08:58:16.588Z,23.22
2022-08-20T09:01:55.696Z,23.21
2022-08-20T09:04:46.519Z,23.57
2022-08-20T09:07:53.265Z,24.09
2022-08-20T09:11:02.700Z,24.55
2022-08-20T09:14:05.304Z,25.02
2022-08-20T09:17:08.276Z,25.47
2022-08-20T09:20:11.836Z,25.08
2022-08-20T09:23:14.457Z,24.68
2022-08-20T09:26:18.377Z,24.56
2022-08-20T09:29:20.950Z,24.31
2022-08-20T09:32:26.114Z,24.32
2022-08-20T09:35:29.492Z,24.26
2022-08-20T09:38:32.722Z,24.19
2022-08-20T09:41:36.711Z,24.15
2022-08-20T09:44:40.140Z,24.10
2022-08-20T09:47:55.178Z,24.19
2022-08-20T09:51:06.268Z,24.16
2022-08-20T09:54:08.897Z,24.28
2022-08-20T09:57:13.569Z,23.98
2022-08-20T10:00:16.936Z,24.26
2022-08-20T10:03:20.648Z,24.39
2022-08-20T10:06:23.274Z,24.58
2022-08-20T10:09:25.900Z,24.78
2022-08-20T10:12:29.874Z,25.33
2022-08-20T10:15:33.163Z,25.59
2022-08-20T10:18:36.137Z,27.09
2022-08-20T10:21:39.364Z,27.35
2022-08-20T10:24:42.149Z,26.89
2022-08-20T10:27:46.214Z,26.25
2022-08-20T10:30:48.793Z,25.95
2022-08-20T10:33:51.384Z,25.87
2022-08-20T10:36:53.974Z,25.93
2022-08-20T10:39:56.878Z,25.82
2022-08-20T10:43:00.821Z,25.93
2022-08-20T10:46:03.717Z,25.87
2022-08-20T10:49:06.262Z,25.80
2022-08-20T10:52:08.861Z,25.87
2022-08-20T10:55:11.640Z,26.06
2022-08-20T10:58:15.615Z,26.10
2022-08-20T11:01:31.510Z,26.05
2022-08-20T11:04:35.997Z,26.49
2022-08-20T11:07:55.030Z,26.32
2022-08-20T11:10:59.213Z,26.56
2022-08-20T11:14:03.155Z,26.24
2022-08-20T11:17:06.458Z,25.95
2022-08-20T11:20:11.222Z,25.79
2022-08-20T11:23:13.865Z,25.66
2022-08-20T11:26:23.092Z,25.49
2022-08-20T11:29:29.979Z,25.64
2022-08-20T11:32:34.815Z,25.62
2022-08-20T11:35:49.103Z,25.54
2022-08-20T11:38:52.520Z,25.38
2022-08-20T11:41:55.370Z,25.50
2022-08-20T11:44:59.419Z,25.64
2022-08-20T11:48:01.983Z,25.57
2022-08-20T11:51:05.230Z,25.67
2022-08-20T11:54:07.806Z,25.75
2022-08-20T11:57:11.234Z,25.81
2022-08-20T12:00:19.083Z,26.01
2022-08-20T12:03:21.739Z,26.32
2022-08-20T12:06:24.343Z,26.39
2022-08-20T12:09:26.905Z,26.45
2022-08-20T12:12:29.523Z,26.53
2022-08-20T12:15:33.573Z,27.58
2022-08-20T12:18:36.205Z,27.83
2022-08-20T12:21:38.942Z,27.87
2022-08-20T12:24:41.614Z,27.80
2022-08-20T12:27:44.235Z,27.45
2022-08-20T12:30:48.210Z,27.21
2022-08-20T12:33:50.772Z,27.30
2022-08-20T12:37:01.466Z,27.52
2022-08-20T12:40:08.249Z,27.92
2022-08-20T12:43:11.030Z,27.86
2022-08-20T12:46:14.986Z,27.45
2022-08-20T12:49:17.624Z,27.31
2022-08-20T12:52:21.954Z,27.14
2022-08-20T12:55:24.527Z,26.97
2022-08-20T12:58:27.098Z,27.90
2022-08-20T13:01:31.069Z,28.48
2022-08-20T13:04:33.846Z,28.41
2022-08-20T13:07:37.148Z,28.21
2022-08-20T13:10:44.416Z,27.82
2022-08-20T13:13:47.705Z,27.70
2022-08-20T13:16:56.141Z,27.40
2022-08-20T13:19:58.789Z,27.49
2022-08-20T13:23:01.406Z,27.89
2022-08-20T13:26:05.158Z,28.51
2022-08-20T13:29:07.952Z,29.16
2022-08-20T13:32:11.962Z,29.01
2022-08-20T13:35:15.704Z,29.10
2022-08-20T13:38:18.315Z,28.95
2022-08-20T13:41:20.949Z,29.21
2022-08-20T13:44:32.723Z,29.04
2022-08-20T13:47:39.209Z,29.30
2022-08-20T13:50:41.984Z,29.48
2022-08-20T13:53:44.653Z,29.59
2022-08-20T13:56:49.562Z,29.61
2022-08-20T13:59:54.021Z,29.25
2022-08-20T14:02:58.235Z,28.81
2022-08-20T14:06:01.306Z,28.63
2022-08-20T14:09:03.971Z,28.67
2022-08-20T14:12:07.437Z,28.54
2022-08-20T14:15:11.680Z,28.73
2022-08-20T14:18:16.377Z,28.69
2022-08-20T14:21:19.265Z,28.58
2022-08-20T14:24:21.919Z,27.98
2022-08-20T14:27:30.550Z,27.90
2022-08-20T14:30:33.915Z,27.59
2022-08-20T14:33:41.342Z,27.45
2022-08-20T14:36:47.076Z,27.00
2022-08-20T14:39:55.077Z,26.75
2022-08-20T14:42:57.952Z,26.69
2022-08-20T14:46:00.702Z,26.75
2022-08-20T14:49:04.621Z,26.87
2022-08-20T14:52:07.626Z,26.13
2022-08-20T14:55:12.689Z,26.14
2022-08-20T14:58:16.891Z,25.72
2022-08-20T15:01:19.498Z,25.75
2022-08-20T15:04:23.476Z,25.68
2022-08-20T15:07:34.597Z,25.38
2022-08-20T15:10:37.188Z,25.36
2022-08-20T15:13:39.761Z,25.47
2022-08-20T15:16:42.394Z,25.28
2022-08-20T15:19:46.400Z,25.29
2022-08-20T15:22:50.273Z,25.26
2022-08-20T15:25:53.236Z,25.13
2022-08-20T15:28:55.874Z,25.00
2022-08-20T15:31:58.494Z,24.94
2022-08-20T15:35:02.883Z,24.84
2022-08-20T15:38:05.479Z,24.76
2022-08-20T15:41:08.126Z,24.53
2022-08-20T15:44:10.695Z,24.56
2022-08-20T15:47:21.039Z,24.38
2022-08-20T15:51:00.334Z,24.33
2022-08-20T15:54:06.926Z,24.44
2022-08-20T15:57:13.694Z,24.61
2022-08-20T16:00:19.904Z,24.67
2022-08-20T16:03:47.690Z,24.66
2022-08-20T16:06:55.165Z,24.50
2022-08-20T16:10:06.401Z,24.32
2022-08-20T16:13:20.217Z,24.16
2022-08-20T16:16:32.204Z,24.12
2022-08-20T16:19:41.323Z,24.10
2022-08-20T16:22:47.488Z,23.99
2022-08-20T16:25:59.699Z,23.87
2022-08-20T16:29:11.250Z,23.76
2022-08-20T16:32:25.917Z,23.89
2022-08-20T16:35:32.551Z,23.63
2022-08-20T16:38:44.175Z,23.43
2022-08-20T16:41:50.217Z,23.49
2022-08-20T16:44:55.988Z,23.80
2022-08-20T16:48:02.371Z,23.80
2022-08-20T16:51:09.615Z,23.52
2022-08-20T16:54:14.846Z,23.60
2022-08-20T16:57:18.455Z,23.75
2022-08-20T17:00:25.825Z,23.76
2022-08-20T17:03:38.624Z,23.37
2022-08-20T17:06:47.228Z,23.19
2022-08-20T17:09:51.450Z,23.26
2022-08-20T17:12:59.336Z,23.36
2022-08-20T17:16:04.783Z,23.38
2022-08-20T17:19:14.670Z,23.18
2022-08-20T17:22:20.190Z,23.12
2022-08-20T17:25:32.332Z,23.04
2022-08-20T17:28:36.088Z,23.10
2022-08-20T17:31:41.744Z,22.93
2022-08-20T17:34:46.729Z,23.12
2022-08-20T17:37:54.037Z,23.11
2022-08-20T17:41:02.286Z,23.10
2022-08-20T17:44:07.261Z,22.98
2022-08-20T17:47:16.008Z,22.60
2022-08-20T17:50:22.172Z,22.52
2022-08-20T17:53:28.334Z,22.69
2022-08-20T17:56:36.471Z,22.58
2022-08-20T18:00:02.647Z,22.59
2022-08-20T18:03:15.471Z,22.75
2022-08-20T18:06:28.484Z,22.49
2022-08-20T18:09:41.228Z,22.37
2022-08-20T18:12:59.663Z,22.55
2022-08-20T18:16:04.810Z,22.39
2022-08-20T18:19:16.006Z,22.28
2022-08-20T18:22:23.186Z,22.22
2022-08-20T18:25:32.370Z,22.19
2022-08-20T18:28:41.786Z,21.96
2022-08-20T18:31:48.649Z,21.90
2022-08-20T18:34:52.642Z,21.94
2022-08-20T18:37:55.319Z,21.90
2022-08-20T18:41:14.095Z,21.66
2022-08-20T18:44:34.761Z,21.53
2022-08-20T18:47:46.096Z,21.51
2022-08-20T18:50:53.201Z,21.31
2022-08-20T18:53:55.914Z,21.37
2022-08-20T18:57:08.286Z,21.16
2022-08-20T19:00:16.709Z,21.12
2022-08-20T19:03:24.569Z,21.10
2022-08-20T19:06:39.596Z,20.99
2022-08-20T19:10:09.226Z,20.98
2022-08-20T19:13:48.179Z,20.79
2022-08-20T19:16:56.932Z,20.72
2022-08-20T19:20:01.095Z,20.58
2022-08-20T19:23:08.529Z,20.64
2022-08-20T19:26:24.856Z,20.56
2022-08-20T19:29:31.512Z,20.44
2022-08-20T19:32:35.502Z,20.40
2022-08-20T19:35:38.323Z,20.27
2022-08-20T19:38:46.218Z,20.24
2022-08-20T19:41:52.371Z,20.13
2022-08-20T19:44:57.403Z,20.13
2022-08-20T19:48:14.907Z,20.14
2022-08-20T19:51:27.568Z,20.01
2022-08-20T19:54:31.008Z,20.02
2022-08-20T19:58:16.892Z,19.89
2022-08-20T20:01:29.750Z,19.87
2022-08-20T20:04:41.175Z,19.78
2022-08-20T20:07:59.561Z,19.79
2022-08-20T20:11:03.127Z,19.87
2022-08-20T20:14:09.387Z,19.79
2022-08-20T20:17:22.508Z,19.67
2022-08-20T20:20:31.612Z,19.64
2022-08-20T20:23:45.729Z,19.66
2022-08-20T20:26:50.555Z,19.59
2022-08-20T20:29:59.649Z,19.52
2022-08-20T20:33:11.450Z,19.44
2022-08-20T20:36:19.182Z,19.37
2022-08-20T20:39:29.129Z,19.34
2022-08-20T20:42:31.838Z,19.25
2022-08-20T20:45:37.512Z,19.27
2022-08-20T20:48:44.014Z,19.28
2022-08-20T20:51:57.048Z,19.09
2022-08-20T20:55:13.543Z,19.16
2022-08-20T20:58:16.144Z,19.06
2022-08-20T21:01:38.582Z,18.83
2022-08-20T21:04:44.721Z,18.81
2022-08-20T21:07:51.791Z,18.72
2022-08-20T21:10:54.348Z,18.68
2022-08-20T21:13:56.947Z,18.53
2022-08-20T21:17:01.957Z,18.58
2022-08-20T21:20:07.458Z,18.54
2022-08-20T21:23:11.414Z,18.50
2022-08-20T21:26:14.241Z,18.41
2022-08-20T21:29:32.118Z,18.25
2022-08-20T21:32:35.193Z,18.18
2022-08-20T21:35:37.761Z,18.35
2022-08-20T21:38:41.731Z,18.28
2022-08-20T21:41:45.790Z,18.08
2022-08-20T21:44:49.723Z,18.01
2022-08-20T21:47:52.794Z,17.97
2022-08-20T21:50:55.378Z,17.94
2022-08-20T21:53:59.277Z,17.93
2022-08-20T21:57:04.413Z,17.81
2022-08-20T22:00:16.006Z,17.85
2022-08-20T22:03:20.067Z,18.00
2022-08-20T22:06:23.087Z,17.89
2022-08-20T22:09:27.049Z,17.79
2022-08-20T22:12:29.646Z,17.69
2022-08-20T22:15:32.227Z,17.70
2022-08-20T22:18:35.111Z,17.61
2022-08-20T22:21:39.344Z,17.51
2022-08-20T22:24:43.361Z,17.51
2022-08-20T22:27:45.960Z,17.42
2022-08-20T22:30:48.899Z,17.42
2022-08-20T22:33:51.775Z,17.43
2022-08-20T22:36:55.374Z,17.13
2022-08-20T22:39:59.898Z,17.36
2022-08-20T22:43:02.875Z,17.46
2022-08-20T22:46:06.027Z,17.27
2022-08-20T22:49:12.912Z,17.08
2022-08-20T22:52:15.746Z,16.91
2022-08-20T22:55:20.284Z,16.81
2022-08-20T22:58:30.891Z,17.07
2022-08-20T23:01:34.697Z,16.77
2022-08-20T23:04:38.085Z,16.83
2022-08-20T23:07:40.815Z,16.86
2022-08-20T23:10:45.048Z,16.81
2022-08-20T23:13:47.840Z,16.97
2022-08-20T23:16:59.701Z,16.95
2022-08-20T23:20:02.926Z,16.68
2022-08-20T23:23:06.639Z,16.69
2022-08-20T23:26:12.826Z,16.67
2022-08-20T23:29:15.769Z,16.86
2022-08-20T23:32:25.940Z,16.90
2022-08-20T23:35:32.207Z,16.67
2022-08-20T23:38:35.994Z,16.62
2022-08-20T23:41:47.512Z,16.57
2022-08-20T23:44:50.780Z,16.68
2022-08-20T23:47:53.806Z,16.61
2022-08-20T23:50:56.513Z,16.75
2022-08-20T23:53:59.143Z,16.71
2022-08-20T23:57:03.146Z,16.49
